createdAt,value
2022-09-02T00:00:05.821Z,1.75
2022-09-02T00:02:34.760Z,2.05
2022-09-02T00:05:04.497Z,1.60
2022-09-02T00:07:36.796Z,1.67
2022-09-02T00:10:07.252Z,1.85
2022-09-02T00:15:04.391Z,1.70
2022-09-02T00:17:33.120Z,1.92
2022-09-02T00:20:02.514Z,1.73
2022-09-02T00:22:29.323Z,1.52
2022-09-02T00:24:56.037Z,1.52
2022-09-02T00:27:26.340Z,1.70
2022-09-02T00:29:55.640Z,1.42
2022-09-02T00:32:25.634Z,1.67
2022-09-02T00:34:55.452Z,1.52
2022-09-02T00:37:25.965Z,1.50
2022-09-02T00:39:54.471Z,1.70
2022-09-02T00:42:31.738Z,1.40
2022-09-02T00:44:58.592Z,1.67
2022-09-02T00:47:26.051Z,1.48
2022-09-02T00:49:54.784Z,1.75
2022-09-02T00:52:27.992Z,1.70
2022-09-02T00:55:04.872Z,1.67
2022-09-02T00:57:40.346Z,1.80
2022-09-02T01:00:18.617Z,1.55
2022-09-02T01:02:51.350Z,1.83
2022-09-02T01:05:20.428Z,1.10
2022-09-02T01:07:47.779Z,1.77
2022-09-02T01:10:19.478Z,1.67
2022-09-02T01:12:47.510Z,1.52
2022-09-02T01:15:15.792Z,1.60
2022-09-02T01:17:50.609Z,1.42
2022-09-02T01:20:25.366Z,1.20
2022-09-02T01:22:53.443Z,1.25
2022-09-02T01:25:29.804Z,1.63
2022-09-02T01:28:08.750Z,1.85
2022-09-02T01:30:38.425Z,1.33
2022-09-02T01:33:05.986Z,1.50
2022-09-02T01:35:34.684Z,1.63
2022-09-02T01:38:02.423Z,1.50
2022-09-02T01:40:32.076Z,1.52
2022-09-02T01:43:14.561Z,1.63
2022-09-02T01:45:43.568Z,1.27
2022-09-02T01:48:11.008Z,1.52
2022-09-02T01:50:45.067Z,1.60
2022-09-02T01:53:14.251Z,1.88
2022-09-02T01:55:41.780Z,1.50
2022-09-02T01:58:08.704Z,2.10
2022-09-02T02:00:35.615Z,1.80
2022-09-02T02:03:02.295Z,1.65
2022-09-02T02:05:30.076Z,1.40
2022-09-02T02:07:56.998Z,1.63
2022-09-02T02:10:24.941Z,1.50
2022-09-02T02:12:51.712Z,1.73
2022-09-02T02:15:20.096Z,1.38
2022-09-02T02:17:47.455Z,1.48
2022-09-02T02:20:16.370Z,1.40
2022-09-02T02:22:43.905Z,1.70
2022-09-02T02:25:11.116Z,1.85
2022-09-02T02:27:37.823Z,1.65
2022-09-02T02:30:09.615Z,1.73
2022-09-02T02:32:37.829Z,1.80
2022-09-02T02:35:06.935Z,1.55
2022-09-02T02:37:33.772Z,1.45
2022-09-02T02:40:00.424Z,1.20
2022-09-02T02:42:31.730Z,1.38
2022-09-02T02:44:58.876Z,1.63
2022-09-02T02:47:26.822Z,1.85
2022-09-02T02:49:53.771Z,1.70
2022-09-02T02:52:20.747Z,1.70
2022-09-02T02:54:47.303Z,1.70
2022-09-02T02:57:13.837Z,1.75
2022-09-02T02:59:40.313Z,1.80
2022-09-02T03:02:07.320Z,1.83
2022-09-02T03:04:34.262Z,1.50
2022-09-02T03:07:01.210Z,1.75
2022-09-02T03:09:27.866Z,1.80
2022-09-02T03:11:54.588Z,1.77
2022-09-02T03:14:21.132Z,1.67
2022-09-02T03:16:47.711Z,2.30
2022-09-02T03:19:14.340Z,1.80
2022-09-02T03:21:41.692Z,1.85
2022-09-02T03:24:10.592Z,2.25
2022-09-02T03:26:37.972Z,2.03
2022-09-02T03:29:09.169Z,1.77
2022-09-02T03:31:36.305Z,2.20
2022-09-02T03:34:04.960Z,2.13
2022-09-02T03:36:35.083Z,1.95
2022-09-02T03:39:02.256Z,2.17
2022-09-02T03:41:28.916Z,1.90
2022-09-02T03:43:57.632Z,3.28
2022-09-02T03:46:27.337Z,2.05
2022-09-02T03:48:53.913Z,2.55
2022-09-02T03:51:21.995Z,2.20
2022-09-02T03:53:48.757Z,2.40
2022-09-02T03:56:16.592Z,2.22
2022-09-02T03:58:46.536Z,2.45
2022-09-02T04:01:28.841Z,2.08
2022-09-02T04:03:58.399Z,2.10
2022-09-02T04:06:26.311Z,2.30
2022-09-02T04:08:59.487Z,1.85
2022-09-02T04:11:26.141Z,1.80
2022-09-02T04:13:53.891Z,1.80
2022-09-02T04:16:30.254Z,2.15
2022-09-02T04:18:58.788Z,2.80
2022-09-02T04:21:26.721Z,2.95
2022-09-02T04:23:53.671Z,2.75
2022-09-02T04:26:22.180Z,3.13
2022-09-02T04:28:54.082Z,3.42
2022-09-02T04:31:29.964Z,2.60
2022-09-02T04:34:01.126Z,3.60
2022-09-02T04:36:34.159Z,2.58
2022-09-02T04:39:04.684Z,2.67
2022-09-02T04:44:08.470Z,2.92
2022-09-02T04:46:35.539Z,2.55
2022-09-02T04:49:06.293Z,2.42
2022-09-02T04:51:55.785Z,2.50
2022-09-02T04:54:57.568Z,2.92
2022-09-02T04:57:24.113Z,3.40
2022-09-02T04:59:50.639Z,3.00
2022-09-02T05:02:17.889Z,3.35
2022-09-02T05:04:44.409Z,3.38
2022-09-02T05:07:11.886Z,3.20
2022-09-02T05:09:39.457Z,3.30
2022-09-02T05:12:06.088Z,2.90
2022-09-02T05:14:33.077Z,2.90
2022-09-02T05:17:05.112Z,3.83
2022-09-02T05:19:34.188Z,3.67
2022-09-02T05:22:01.763Z,3.65
2022-09-02T05:24:31.262Z,3.45
2022-09-02T05:26:57.688Z,3.13
2022-09-02T05:29:24.261Z,3.13
2022-09-02T05:31:50.969Z,3.20
2022-09-02T05:34:17.975Z,2.70
2022-09-02T05:36:44.782Z,2.78
2022-09-02T05:39:11.385Z,2.75
2022-09-02T05:41:38.420Z,3.38
2022-09-02T05:44:06.714Z,3.53
2022-09-02T05:46:36.255Z,3.60
2022-09-02T05:49:06.431Z,2.95
2022-09-02T05:51:41.516Z,3.20
2022-09-02T05:54:11.135Z,2.70
2022-09-02T05:56:39.401Z,2.20
2022-09-02T05:59:11.368Z,2.25
2022-09-02T06:01:37.974Z,2.63
2022-09-02T06:04:05.877Z,2.50
2022-09-02T06:06:33.616Z,2.30
2022-09-02T06:09:00.846Z,2.70
2022-09-02T06:11:28.833Z,1.98
2022-09-02T06:13:55.478Z,2.00
2022-09-02T06:16:23.081Z,2.05
2022-09-02T06:18:50.942Z,2.22
2022-09-02T06:21:18.461Z,1.70
2022-09-02T06:23:45.959Z,1.98
2022-09-02T06:26:13.801Z,2.03
2022-09-02T06:28:40.833Z,2.22
2022-09-02T06:31:10.394Z,1.90
2022-09-02T06:33:38.193Z,2.10
2022-09-02T06:36:14.822Z,2.17
2022-09-02T06:38:45.978Z,1.50
2022-09-02T06:41:18.080Z,1.67
2022-09-02T06:43:57.877Z,1.70
2022-09-02T06:46:28.042Z,1.70
2022-09-02T06:48:54.855Z,1.63
2022-09-02T06:51:26.459Z,1.83
2022-09-02T06:53:55.784Z,1.58
2022-09-02T06:56:22.436Z,1.77
2022-09-02T06:58:48.961Z,1.40
2022-09-02T07:01:24.065Z,1.98
2022-09-02T07:04:09.715Z,1.50
2022-09-02T07:06:45.935Z,1.70
2022-09-02T07:09:15.040Z,1.80
2022-09-02T07:11:41.515Z,1.60
2022-09-02T07:14:08.102Z,1.30
2022-09-02T07:16:42.492Z,1.58
2022-09-02T07:19:14.017Z,1.45
2022-09-02T07:21:43.044Z,1.70
2022-09-02T07:24:12.716Z,1.50
2022-09-02T07:26:39.816Z,1.40
2022-09-02T07:29:08.737Z,1.58
2022-09-02T07:31:41.027Z,1.50
2022-09-02T07:34:08.335Z,1.60
2022-09-02T07:36:37.881Z,1.90
2022-09-02T07:39:07.602Z,1.63
2022-09-02T07:41:34.967Z,1.38
2022-09-02T07:44:02.128Z,1.45
2022-09-02T07:46:31.580Z,1.85
2022-09-02T07:49:00.614Z,1.23
2022-09-02T07:51:27.725Z,1.25
2022-09-02T07:53:57.531Z,1.50
2022-09-02T07:56:24.073Z,1.48
2022-09-02T07:58:50.725Z,1.60
2022-09-02T08:01:22.685Z,1.77
2022-09-02T08:03:50.446Z,1.15
2022-09-02T08:06:17.361Z,1.25
2022-09-02T08:08:56.377Z,1.60
2022-09-02T08:11:23.674Z,1.42
2022-09-02T08:13:50.649Z,1.30
2022-09-02T08:16:17.542Z,1.65
2022-09-02T08:18:44.279Z,1.10
2022-09-02T08:21:10.807Z,1.13
2022-09-02T08:23:37.890Z,1.63
2022-09-02T08:26:05.679Z,1.63
2022-09-02T08:28:32.517Z,1.35
2022-09-02T08:30:59.354Z,1.30
2022-09-02T08:33:26.169Z,1.10
2022-09-02T08:35:52.612Z,1.33
2022-09-02T08:38:19.064Z,1.20
2022-09-02T08:40:45.906Z,1.08
2022-09-02T08:43:26.917Z,1.05
2022-09-02T08:45:55.902Z,1.45
2022-09-02T08:48:34.408Z,1.10
2022-09-02T08:51:05.966Z,1.30
2022-09-02T08:53:51.723Z,1.70
2022-09-02T08:56:19.066Z,1.05
2022-09-02T08:58:56.808Z,1.27
2022-09-02T09:01:46.288Z,1.10
2022-09-02T09:04:44.507Z,1.00
2022-09-02T09:10:22.014Z,1.02
2022-09-02T09:12:56.428Z,0.85
2022-09-02T09:15:25.978Z,1.20
2022-09-02T09:17:58.503Z,1.30
2022-09-02T09:20:28.262Z,1.02
2022-09-02T09:23:04.086Z,1.23
2022-09-02T09:25:30.841Z,1.02
2022-09-02T09:28:01.299Z,1.20
2022-09-02T09:30:29.132Z,1.00
2022-09-02T09:32:59.768Z,0.80
2022-09-02T09:35:27.973Z,1.33
2022-09-02T09:37:55.872Z,1.10
2022-09-02T09:40:24.720Z,0.90
2022-09-02T09:43:14.708Z,1.30
2022-09-02T09:45:47.751Z,1.00
2022-09-02T09:48:19.856Z,1.00
2022-09-02T09:50:48.569Z,1.30
2022-09-02T09:53:28.255Z,0.80
2022-09-02T09:56:07.115Z,0.90
2022-09-02T09:58:39.661Z,0.70
2022-09-02T10:01:17.318Z,0.75
2022-09-02T10:04:01.018Z,0.90
2022-09-02T10:06:33.400Z,0.65
2022-09-02T10:09:02.651Z,0.93
2022-09-02T10:11:32.343Z,0.63
2022-09-02T10:14:05.107Z,0.95
2022-09-02T10:16:44.243Z,0.90
2022-09-02T10:19:43.910Z,0.70
2022-09-02T10:22:16.294Z,0.80
2022-09-02T10:25:01.378Z,0.85
2022-09-02T10:27:58.976Z,1.10
2022-09-02T10:30:26.101Z,0.70
2022-09-02T10:33:13.432Z,0.75
2022-09-02T10:35:44.382Z,0.95
2022-09-02T10:38:19.667Z,1.10
2022-09-02T10:40:52.926Z,1.00
2022-09-02T10:43:59.899Z,0.98
2022-09-02T10:46:34.378Z,1.00
2022-09-02T10:49:42.698Z,0.93
2022-09-02T10:52:27.185Z,0.90
2022-09-02T10:55:42.204Z,1.00
2022-09-02T10:58:12.509Z,0.80
2022-09-02T11:00:41.483Z,0.57
2022-09-02T11:03:18.252Z,1.05
2022-09-02T11:05:53.768Z,0.95
2022-09-02T11:08:31.705Z,1.23
2022-09-02T11:11:22.406Z,0.90
2022-09-02T11:14:26.809Z,1.20
2022-09-02T11:17:12.882Z,1.00
2022-09-02T11:19:53.628Z,0.90
2022-09-02T11:22:46.270Z,0.57
2022-09-02T11:25:20.046Z,0.98
2022-09-02T11:27:52.634Z,0.82
2022-09-02T11:30:22.479Z,1.00
2022-09-02T11:32:55.013Z,0.75
2022-09-02T11:35:28.025Z,1.27
2022-09-02T11:38:03.793Z,1.15
2022-09-02T11:40:36.685Z,0.90
2022-09-02T11:43:46.518Z,0.70
2022-09-02T11:46:36.227Z,1.15
2022-09-02T11:49:29.579Z,1.00
2022-09-02T11:52:19.411Z,0.95
2022-09-02T11:54:49.318Z,1.05
2022-09-02T11:59:53.168Z,1.00
2022-09-02T12:02:52.575Z,1.10
2022-09-02T12:05:30.011Z,1.00
2022-09-02T12:07:59.606Z,0.73
2022-09-02T12:10:44.653Z,1.10
2022-09-02T12:13:43.836Z,0.73
2022-09-02T12:16:16.658Z,1.30
2022-09-02T12:18:55.797Z,0.85
2022-09-02T12:21:24.081Z,1.17
2022-09-02T12:23:56.799Z,0.70
2022-09-02T12:26:29.081Z,1.00
2022-09-02T12:29:22.677Z,0.90
2022-09-02T12:31:51.412Z,0.90
2022-09-02T12:34:20.865Z,0.77
2022-09-02T12:37:00.921Z,0.98
2022-09-02T12:39:27.436Z,1.00
2022-09-02T12:42:00.774Z,0.70
2022-09-02T12:44:43.764Z,0.80
2022-09-02T12:47:19.508Z,0.70
2022-09-02T12:49:51.541Z,1.02
2022-09-02T12:52:36.224Z,0.80
2022-09-02T12:55:18.249Z,0.88
2022-09-02T12:57:47.726Z,0.70
2022-09-02T13:00:19.512Z,0.60
2022-09-02T13:03:07.766Z,0.70
2022-09-02T13:05:52.473Z,0.80
2022-09-02T13:08:57.054Z,0.85
2022-09-02T13:11:48.464Z,0.65
2022-09-02T13:14:27.363Z,0.88
2022-09-02T13:17:25.881Z,1.00
2022-09-02T13:20:37.696Z,0.70
2022-09-02T13:23:11.857Z,0.52
2022-09-02T13:25:45.810Z,0.70
2022-09-02T13:28:49.927Z,1.00
2022-09-02T13:31:20.112Z,0.80
2022-09-02T13:33:46.733Z,0.77
2022-09-02T13:36:26.510Z,0.68
2022-09-02T13:38:53.088Z,1.08
2022-09-02T13:41:39.178Z,0.70
2022-09-02T13:44:11.351Z,1.27
2022-09-02T13:46:49.476Z,0.60
2022-09-02T13:49:37.415Z,0.90
2022-09-02T13:52:07.456Z,0.85
2022-09-02T13:54:45.413Z,0.60
2022-09-02T13:57:28.573Z,0.73
2022-09-02T14:00:09.481Z,0.75
2022-09-02T14:02:37.608Z,1.05
2022-09-02T14:05:27.951Z,0.73
2022-09-02T14:08:04.548Z,0.68
2022-09-02T14:10:39.050Z,0.70
2022-09-02T14:13:12.120Z,0.75
2022-09-02T14:15:53.815Z,0.90
2022-09-02T14:18:30.116Z,0.82
2022-09-02T14:21:01.589Z,0.80
2022-09-02T14:23:36.995Z,0.70
2022-09-02T14:26:05.281Z,0.68
2022-09-02T14:28:39.079Z,0.50
2022-09-02T14:31:23.086Z,0.70
2022-09-02T14:33:49.912Z,0.85
2022-09-02T14:36:21.451Z,0.52
2022-09-02T14:38:48.835Z,0.90
2022-09-02T14:41:20.879Z,0.60
2022-09-02T14:43:50.801Z,0.77
2022-09-02T14:46:45.052Z,0.80
2022-09-02T14:49:20.670Z,0.70
2022-09-02T14:51:51.582Z,0.77
2022-09-02T14:54:55.141Z,0.40
2022-09-02T14:57:42.198Z,0.68
2022-09-02T15:00:13.243Z,0.80
2022-09-02T15:02:46.564Z,0.60
2022-09-02T15:05:16.633Z,0.90
2022-09-02T15:07:43.487Z,0.77
2022-09-02T15:10:10.535Z,1.27
2022-09-02T15:12:50.417Z,0.93
2022-09-02T15:15:17.283Z,0.80
2022-09-02T15:17:44.029Z,0.80
2022-09-02T15:20:24.426Z,0.90
2022-09-02T15:22:53.218Z,0.90
2022-09-02T15:25:20.579Z,6.60
2022-09-02T15:27:47.210Z,2.72
2022-09-02T15:30:14.064Z,5.10
2022-09-02T15:32:41.076Z,1.70
2022-09-02T15:35:09.043Z,0.80
2022-09-02T15:37:39.445Z,1.00
2022-09-02T15:40:16.159Z,0.95
2022-09-02T15:42:42.743Z,0.70
2022-09-02T15:45:09.883Z,0.90
2022-09-02T15:47:37.505Z,0.93
2022-09-02T15:50:09.970Z,0.90
2022-09-02T15:52:37.950Z,0.90
2022-09-02T15:55:05.265Z,0.73
2022-09-02T15:57:31.943Z,1.05
2022-09-02T15:59:58.673Z,0.60
2022-09-02T16:02:25.377Z,0.80
2022-09-02T16:04:54.717Z,0.88
2022-09-02T16:07:26.121Z,0.65
2022-09-02T16:09:52.800Z,0.70
2022-09-02T16:12:19.313Z,0.75
2022-09-02T16:14:51.105Z,0.90
2022-09-02T16:17:17.744Z,0.73
2022-09-02T16:19:44.664Z,0.85
2022-09-02T16:22:11.261Z,0.82
2022-09-02T16:24:37.780Z,0.70
2022-09-02T16:27:04.530Z,0.65
2022-09-02T16:29:32.935Z,0.60
2022-09-02T16:32:23.631Z,0.93
2022-09-02T16:34:46.737Z,0.70
2022-09-02T16:37:13.923Z,1.45
2022-09-02T16:39:43.530Z,1.23
2022-09-02T16:42:10.182Z,1.13
2022-09-02T16:44:37.375Z,0.85
2022-09-02T16:47:06.466Z,0.98
2022-09-02T16:49:34.436Z,0.90
2022-09-02T16:52:01.145Z,0.90
2022-09-02T16:54:32.977Z,1.27
2022-09-02T16:57:01.810Z,0.90
2022-09-02T16:59:31.374Z,0.82
2022-09-02T17:01:58.441Z,0.82
2022-09-02T17:04:25.126Z,0.90
2022-09-02T17:06:51.607Z,1.00
2022-09-02T17:09:18.302Z,1.00
2022-09-02T17:11:45.656Z,1.17
2022-09-02T17:14:16.384Z,0.98
2022-09-02T17:16:46.944Z,1.20
2022-09-02T17:19:21.673Z,0.95
2022-09-02T17:21:52.829Z,0.73
2022-09-02T17:24:21.884Z,0.90
2022-09-02T17:26:52.678Z,1.80
2022-09-02T17:29:47.522Z,1.15
2022-09-02T17:32:08.666Z,0.93
2022-09-02T17:34:35.381Z,1.20
2022-09-02T17:37:02.260Z,1.20
2022-09-02T17:39:28.946Z,1.52
2022-09-02T17:41:57.263Z,1.15
2022-09-02T17:44:36.060Z,1.10
2022-09-02T17:47:05.973Z,0.93
2022-09-02T17:49:37.513Z,1.13
2022-09-02T17:52:11.346Z,1.67
2022-09-02T17:54:39.051Z,1.30
2022-09-02T17:57:42.647Z,1.20
2022-09-02T18:00:14.195Z,1.23
2022-09-02T18:02:59.112Z,1.50
2022-09-02T18:05:43.930Z,1.75
2022-09-02T18:08:37.961Z,1.10
2022-09-02T18:11:07.370Z,1.20
2022-09-02T18:14:06.957Z,1.08
2022-09-02T18:16:40.193Z,1.02
2022-09-02T18:19:27.709Z,1.10
2022-09-02T18:22:35.922Z,1.30
2022-09-02T18:25:33.257Z,1.02
2022-09-02T18:28:28.644Z,2.90
2022-09-02T18:31:30.600Z,2.78
2022-09-02T18:34:19.660Z,2.65
2022-09-02T18:37:24.209Z,2.10
2022-09-02T18:40:15.328Z,2.03
2022-09-02T18:42:51.061Z,2.10
2022-09-02T18:45:30.588Z,2.20
2022-09-02T18:48:03.270Z,1.40
2022-09-02T18:50:54.353Z,1.40
2022-09-02T18:53:31.625Z,1.30
2022-09-02T18:56:10.889Z,1.20
2022-09-02T18:59:08.129Z,1.27
2022-09-02T19:01:43.297Z,1.40
2022-09-02T19:04:10.630Z,1.20
2022-09-02T19:06:40.870Z,1.75
2022-09-02T19:11:38.940Z,1.17
2022-09-02T19:14:08.454Z,1.50
2022-09-02T19:16:38.258Z,2.05
2022-09-02T19:19:06.559Z,2.05
2022-09-02T19:21:48.928Z,2.72
2022-09-02T19:24:27.783Z,1.60
2022-09-02T19:27:02.317Z,1.55
2022-09-02T19:29:33.753Z,1.58
2022-09-02T19:32:00.738Z,1.40
2022-09-02T19:35:18.160Z,1.70
2022-09-02T19:37:51.404Z,1.83
2022-09-02T19:40:39.300Z,1.92
2022-09-02T19:43:10.228Z,1.35
2022-09-02T19:45:37.658Z,1.17
2022-09-02T19:48:11.262Z,1.70
2022-09-02T19:50:54.310Z,1.30
2022-09-02T19:53:34.322Z,1.27
2022-09-02T19:56:01.468Z,1.23
2022-09-02T19:58:28.341Z,1.38
2022-09-02T20:00:57.562Z,1.70
2022-09-02T20:03:24.473Z,2.08
2022-09-02T20:06:00.953Z,2.10
2022-09-02T20:08:34.735Z,1.52
2022-09-02T20:11:04.962Z,1.77
2022-09-02T20:16:17.325Z,1.58
2022-09-02T20:18:48.348Z,1.13
2022-09-02T20:21:33.182Z,1.30
2022-09-02T20:24:25.203Z,1.50
2022-09-02T20:27:25.073Z,1.35
2022-09-02T20:30:11.305Z,1.70
2022-09-02T20:32:58.701Z,1.63
2022-09-02T20:36:08.935Z,1.42
2022-09-02T20:39:12.220Z,1.63
2022-09-02T20:42:04.613Z,1.50
2022-09-02T20:44:54.566Z,1.73
2022-09-02T20:47:42.860Z,1.40
2022-09-02T20:50:15.372Z,1.30
2022-09-02T20:52:49.759Z,1.70
2022-09-02T20:55:25.687Z,1.80
2022-09-02T20:58:37.368Z,1.60
2022-09-02T21:01:28.315Z,1.85
2022-09-02T21:04:37.036Z,1.67
2022-09-02T21:07:12.751Z,1.63
2022-09-02T21:09:56.059Z,1.40
2022-09-02T21:12:53.543Z,1.75
2022-09-02T21:15:54.100Z,1.60
2022-09-02T21:18:51.462Z,1.88
2022-09-02T21:21:36.400Z,1.30
2022-09-02T21:24:13.746Z,2.22
2022-09-02T21:26:49.430Z,1.60
2022-09-02T21:29:23.941Z,1.63
2022-09-02T21:31:58.183Z,1.40
2022-09-02T21:34:35.329Z,1.23
2022-09-02T21:37:04.892Z,1.50
2022-09-02T21:39:38.278Z,1.30
2022-09-02T21:42:17.019Z,1.30
2022-09-02T21:45:16.062Z,1.98
2022-09-02T21:48:12.026Z,1.60
2022-09-02T21:50:50.353Z,1.35
2022-09-02T21:54:04.339Z,1.27
2022-09-02T21:56:33.886Z,1.83
2022-09-02T21:59:22.650Z,1.33
2022-09-02T22:02:07.736Z,1.80
2022-09-02T22:04:54.822Z,1.20
2022-09-02T22:07:34.981Z,1.83
2022-09-02T22:10:29.757Z,1.48
2022-09-02T22:13:01.301Z,1.60
2022-09-02T22:16:02.831Z,1.73
2022-09-02T22:18:33.752Z,1.38
2022-09-02T22:21:08.599Z,1.40
2022-09-02T22:23:36.308Z,1.25
2022-09-02T22:26:37.038Z,1.10
2022-09-02T22:29:10.618Z,1.65
2022-09-02T22:31:43.193Z,1.40
2022-09-02T22:34:10.653Z,1.40
2022-09-02T22:36:49.015Z,1.45
2022-09-02T22:39:17.304Z,1.27
2022-09-02T22:42:00.000Z,1.50
2022-09-02T22:44:54.863Z,1.40
2022-09-02T22:47:42.066Z,1.75
2022-09-02T22:50:39.422Z,1.45
2022-09-02T22:53:06.222Z,1.63
2022-09-02T22:55:59.025Z,1.08
2022-09-02T22:58:44.096Z,1.40
2022-09-02T23:01:32.385Z,1.42
2022-09-02T23:04:24.654Z,1.17
2022-09-02T23:06:55.231Z,1.30
2022-09-02T23:09:21.930Z,1.40
2022-09-02T23:11:55.083Z,1.30
2022-09-02T23:14:31.404Z,2.60
2022-09-02T23:17:36.790Z,1.67
2022-09-02T23:20:07.087Z,1.17
2022-09-02T23:22:44.806Z,1.08
2022-09-02T23:25:48.294Z,1.83
2022-09-02T23:28:59.759Z,1.25
2022-09-02T23:31:51.842Z,1.42
2022-09-02T23:34:46.174Z,1.30
2022-09-02T23:37:30.709Z,1.40
2022-09-02T23:40:20.667Z,1.23
2022-09-02T23:42:47.898Z,1.23
2022-09-02T23:45:21.961Z,1.30
2022-09-02T23:48:13.106Z,1.10
2022-09-02T23:51:06.021Z,1.17
2022-09-02T23:53:57.985Z,1.30
2022-09-02T23:56:46.592Z,1.40
2022-09-02T23:59:33.533Z,1.20
